sensor_id;sensor_type;location;lat;lon;timestamp;pressure;altitude;pressure_sealevel;temperature;humidity
12897;BME280;6516;35.028;32.372;2022-12-08T00:01:34;100461.25;;;13.84;82.36
12897;BME280;6516;35.028;32.372;2022-12-08T00:04:03;100461.47;;;13.76;82.58
12897;BME280;6516;35.028;32.372;2022-12-08T00:06:33;100473.97;;;13.70;82.76
12897;BME280;6516;35.028;32.372;2022-12-08T00:09:20;100474.00;;;13.68;82.73
12897;BME280;6516;35.028;32.372;2022-12-08T00:11:54;100466.22;;;13.62;82.49
12897;BME280;6516;35.028;32.372;2022-12-08T00:14:25;100477.81;;;13.58;82.98
12897;BME280;6516;35.028;32.372;2022-12-08T00:16:55;100477.16;;;13.49;82.98
12897;BME280;6516;35.028;32.372;2022-12-08T00:19:24;100474.66;;;13.43;83.32
12897;BME280;6516;35.028;32.372;2022-12-08T00:21:53;100466.78;;;13.40;82.98
12897;BME280;6516;35.028;32.372;2022-12-08T00:24:24;100474.88;;;13.34;83.16
12897;BME280;6516;35.028;32.372;2022-12-08T00:26:58;100478.56;;;13.27;83.09
12897;BME280;6516;35.028;32.372;2022-12-08T00:29:26;100485.72;;;13.22;83.42
12897;BME280;6516;35.028;32.372;2022-12-08T00:31:55;100484.91;;;13.20;83.11
12897;BME280;6516;35.028;32.372;2022-12-08T00:34:22;100491.16;;;13.16;83.22
12897;BME280;6516;35.028;32.372;2022-12-08T00:36:50;100490.41;;;13.11;83.45
12897;BME280;6516;35.028;32.372;2022-12-08T00:39:18;100485.13;;;13.11;83.29
12897;BME280;6516;35.028;32.372;2022-12-08T00:41:46;100487.63;;;13.17;82.96
12897;BME280;6516;35.028;32.372;2022-12-08T00:44:32;100488.38;;;13.22;82.32
12897;BME280;6516;35.028;32.372;2022-12-08T00:47:00;100490.09;;;13.23;82.30
12897;BME280;6516;35.028;32.372;2022-12-08T00:49:28;100491.00;;;13.23;81.95
12897;BME280;6516;35.028;32.372;2022-12-08T00:51:56;100489.25;;;13.22;82.00
12897;BME280;6516;35.028;32.372;2022-12-08T00:54:24;100484.81;;;13.23;81.63
12897;BME280;6516;35.028;32.372;2022-12-08T00:56:52;100484.81;;;13.23;81.49
12897;BME280;6516;35.028;32.372;2022-12-08T00:59:20;100492.88;;;13.18;81.56
12897;BME280;6516;35.028;32.372;2022-12-08T01:01:50;100489.50;;;13.12;81.90
12897;BME280;6516;35.028;32.372;2022-12-08T01:04:18;100489.66;;;13.06;82.00
12897;BME280;6516;35.028;32.372;2022-12-08T01:06:47;100497.66;;;13.01;82.14
12897;BME280;6516;35.028;32.372;2022-12-08T01:09:16;100503.06;;;12.95;82.46
12897;BME280;6516;35.028;32.372;2022-12-08T01:11:44;100500.41;;;12.97;81.74
12897;BME280;6516;35.028;32.372;2022-12-08T01:14:12;100495.97;;;12.99;81.90
12897;BME280;6516;35.028;32.372;2022-12-08T01:16:42;100495.97;;;12.99;81.40
12897;BME280;6516;35.028;32.372;2022-12-08T01:19:13;100497.63;;;13.03;80.96
12897;BME280;6516;35.028;32.372;2022-12-08T01:21:43;100499.41;;;13.01;81.32
12897;BME280;6516;35.028;32.372;2022-12-08T01:24:11;100489.88;;;12.94;81.89
12897;BME280;6516;35.028;32.372;2022-12-08T01:26:41;100500.63;;;12.86;82.53
12897;BME280;6516;35.028;32.372;2022-12-08T01:29:09;100486.72;;;12.77;82.99
12897;BME280;6516;35.028;32.372;2022-12-08T01:31:38;100493.81;;;12.75;83.26
12897;BME280;6516;35.028;32.372;2022-12-08T01:34:06;100492.97;;;12.73;83.37
12897;BME280;6516;35.028;32.372;2022-12-08T01:36:36;100489.41;;;12.74;83.09
12897;BME280;6516;35.028;32.372;2022-12-08T01:39:06;100490.28;;;12.74;82.92
12897;BME280;6516;35.028;32.372;2022-12-08T01:41:38;100484.88;;;12.80;82.56
12897;BME280;6516;35.028;32.372;2022-12-08T01:47:25;100474.25;;;12.83;82.02
12897;BME280;6516;35.028;32.372;2022-12-08T01:50:01;100482.97;;;12.87;81.68
12897;BME280;6516;35.028;32.372;2022-12-08T01:52:35;100482.00;;;12.91;81.31
12897;BME280;6516;35.028;32.372;2022-12-08T01:55:08;100481.19;;;12.87;81.46
12897;BME280;6516;35.028;32.372;2022-12-08T01:57:41;100480.41;;;12.84;81.74
12897;BME280;6516;35.028;32.372;2022-12-08T02:00:14;100486.56;;;12.83;81.79
12897;BME280;6516;35.028;32.372;2022-12-08T02:02:49;100491.00;;;12.82;81.67
12897;BME280;6516;35.028;32.372;2022-12-08T02:05:22;100486.53;;;12.84;81.61
12897;BME280;6516;35.028;32.372;2022-12-08T02:07:54;100494.50;;;12.83;81.36
12897;BME280;6516;35.028;32.372;2022-12-08T02:10:27;100489.22;;;12.83;81.40
12897;BME280;6516;35.028;32.372;2022-12-08T02:12:57;100483.22;;;12.76;81.82
12897;BME280;6516;35.028;32.372;2022-12-08T02:15:33;100480.69;;;12.70;82.16
12897;BME280;6516;35.028;32.372;2022-12-08T02:18:21;100478.16;;;12.66;82.44
12897;BME280;6516;35.028;32.372;2022-12-08T02:20:59;100487.94;;;12.61;82.80
12897;BME280;6516;35.028;32.372;2022-12-08T02:23:38;100493.44;;;12.52;83.42
12897;BME280;6516;35.028;32.372;2022-12-08T02:26:40;100495.34;;;12.44;83.53
12897;BME280;6516;35.028;32.372;2022-12-08T02:35:59;100495.16;;;12.53;82.90
12897;BME280;6516;35.028;32.372;2022-12-08T02:38:39;100493.34;;;12.55;82.99
12897;BME280;6516;35.028;32.372;2022-12-08T02:41:29;100486.28;;;12.57;82.84
12897;BME280;6516;35.028;32.372;2022-12-08T02:44:09;100494.09;;;12.61;82.71
12897;BME280;6516;35.028;32.372;2022-12-08T02:46:45;100492.56;;;12.50;83.44
12897;BME280;6516;35.028;32.372;2022-12-08T02:49:15;100493.66;;;12.40;83.98
12897;BME280;6516;35.028;32.372;2022-12-08T02:51:44;100503.41;;;12.36;84.39
12897;BME280;6516;35.028;32.372;2022-12-08T02:54:13;100501.63;;;12.37;84.52
12897;BME280;6516;35.028;32.372;2022-12-08T02:56:59;100500.84;;;12.32;84.95
12897;BME280;6516;35.028;32.372;2022-12-08T02:59:55;100500.94;;;12.29;85.11
12897;BME280;6516;35.028;32.372;2022-12-08T03:02:55;100503.56;;;12.29;84.90
12897;BME280;6516;35.028;32.372;2022-12-08T03:05:44;100512.34;;;12.28;84.93
12897;BME280;6516;35.028;32.372;2022-12-08T03:08:31;100513.31;;;12.24;85.13
12897;BME280;6516;35.028;32.372;2022-12-08T03:11:06;100512.47;;;12.23;85.27
12897;BME280;6516;35.028;32.372;2022-12-08T03:13:40;100508.00;;;12.25;85.15
12897;BME280;6516;35.028;32.372;2022-12-08T03:16:14;100507.06;;;12.29;84.87
12897;BME280;6516;35.028;32.372;2022-12-08T03:18:48;100506.13;;;12.32;84.58
12897;BME280;6516;35.028;32.372;2022-12-08T03:21:19;100514.16;;;12.26;84.67
12897;BME280;6516;35.028;32.372;2022-12-08T03:23:52;100517.66;;;12.26;84.39
12897;BME280;6516;35.028;32.372;2022-12-08T03:26:26;100513.13;;;12.33;84.11
12897;BME280;6516;35.028;32.372;2022-12-08T03:28:57;100519.25;;;12.36;83.82
12897;BME280;6516;35.028;32.372;2022-12-08T03:31:27;100518.25;;;12.42;83.30
12897;BME280;6516;35.028;32.372;2022-12-08T03:33:59;100518.06;;;12.51;82.77
12897;BME280;6516;35.028;32.372;2022-12-08T03:36:28;100515.38;;;12.54;82.41
12897;BME280;6516;35.028;32.372;2022-12-08T03:38:57;100519.66;;;12.59;82.35
12897;BME280;6516;35.028;32.372;2022-12-08T03:41:25;100517.03;;;12.59;82.23
12897;BME280;6516;35.028;32.372;2022-12-08T03:43:54;100517.06;;;12.58;82.00
12897;BME280;6516;35.028;32.372;2022-12-08T03:46:26;100517.09;;;12.56;82.15
12897;BME280;6516;35.028;32.372;2022-12-08T03:48:55;100519.75;;;12.55;82.17
12897;BME280;6516;35.028;32.372;2022-12-08T03:51:24;100515.38;;;12.54;82.15
12897;BME280;6516;35.028;32.372;2022-12-08T03:53:52;100523.28;;;12.54;82.08
12897;BME280;6516;35.028;32.372;2022-12-08T03:56:24;100528.59;;;12.52;82.21
12897;BME280;6516;35.028;32.372;2022-12-08T03:58:55;100526.91;;;12.48;82.26
12897;BME280;6516;35.028;32.372;2022-12-08T04:01:24;100520.72;;;12.51;82.28
12897;BME280;6516;35.028;32.372;2022-12-08T04:03:52;100527.78;;;12.50;82.46
12897;BME280;6516;35.028;32.372;2022-12-08T04:06:20;100526.88;;;12.51;82.39
12897;BME280;6516;35.028;32.372;2022-12-08T04:08:49;100530.41;;;12.52;82.52
12897;BME280;6516;35.028;32.372;2022-12-08T04:11:17;100532.94;;;12.55;82.69
12897;BME280;6516;35.028;32.372;2022-12-08T04:13:48;100536.28;;;12.66;82.47
12897;BME280;6516;35.028;32.372;2022-12-08T04:16:17;100538.63;;;12.78;82.13
12897;BME280;6516;35.028;32.372;2022-12-08T04:18:46;100543.75;;;12.87;81.86
12897;BME280;6516;35.028;32.372;2022-12-08T04:21:14;100544.66;;;12.84;81.54
12897;BME280;6516;35.028;32.372;2022-12-08T04:23:43;100543.88;;;12.81;81.96
12897;BME280;6516;35.028;32.372;2022-12-08T04:26:13;100536.88;;;12.78;81.84
12897;BME280;6516;35.028;32.372;2022-12-08T04:28:42;100549.28;;;12.76;82.22
12897;BME280;6516;35.028;32.372;2022-12-08T04:31:11;100552.94;;;12.68;82.50
12897;BME280;6516;35.028;32.372;2022-12-08T04:33:39;100551.25;;;12.64;82.63
12897;BME280;6516;35.028;32.372;2022-12-08T04:36:08;100561.06;;;12.59;82.92
12897;BME280;6516;35.028;32.372;2022-12-08T04:38:36;100566.38;;;12.56;83.22
12897;BME280;6516;35.028;32.372;2022-12-08T04:41:04;100561.19;;;12.53;83.52
12897;BME280;6516;35.028;32.372;2022-12-08T04:43:32;100568.22;;;12.52;83.70
12897;BME280;6516;35.028;32.372;2022-12-08T04:45:59;100562.09;;;12.52;83.70
12897;BME280;6516;35.028;32.372;2022-12-08T04:48:28;100568.06;;;12.60;83.50
12897;BME280;6516;35.028;32.372;2022-12-08T04:50:56;100567.09;;;12.64;83.39
12897;BME280;6516;35.028;32.372;2022-12-08T04:53:24;100570.66;;;12.63;83.21
12897;BME280;6516;35.028;32.372;2022-12-08T04:55:52;100574.31;;;12.56;83.61
12897;BME280;6516;35.028;32.372;2022-12-08T04:58:20;100569.84;;;12.59;83.50
12897;BME280;6516;35.028;32.372;2022-12-08T05:00:49;100572.41;;;12.64;83.42
12897;BME280;6516;35.028;32.372;2022-12-08T05:03:16;100568.91;;;12.63;83.45
12897;BME280;6516;35.028;32.372;2022-12-08T05:05:46;100574.22;;;12.62;83.48
12897;BME280;6516;35.028;32.372;2022-12-08T05:08:13;100579.50;;;12.62;83.59
12897;BME280;6516;35.028;32.372;2022-12-08T05:10:41;100578.38;;;12.73;83.37
12897;BME280;6516;35.028;32.372;2022-12-08T05:13:09;100586.00;;;12.87;82.46
12897;BME280;6516;35.028;32.372;2022-12-08T05:15:37;100583.19;;;12.97;82.44
12897;BME280;6516;35.028;32.372;2022-12-08T05:18:05;100583.81;;;13.10;81.90
12897;BME280;6516;35.028;32.372;2022-12-08T05:20:33;100591.69;;;13.13;82.01
12897;BME280;6516;35.028;32.372;2022-12-08T05:23:03;100591.47;;;13.23;81.36
12897;BME280;6516;35.028;32.372;2022-12-08T05:25:30;100592.19;;;13.30;81.33
12897;BME280;6516;35.028;32.372;2022-12-08T05:27:58;100591.06;;;13.41;80.76
12897;BME280;6516;35.028;32.372;2022-12-08T05:30:26;100592.75;;;13.45;80.79
12897;BME280;6516;35.028;32.372;2022-12-08T05:32:54;100594.34;;;13.51;80.31
12897;BME280;6516;35.028;32.372;2022-12-08T05:35:22;100599.53;;;13.57;80.11
12897;BME280;6516;35.028;32.372;2022-12-08T05:37:50;100595.78;;;13.65;80.13
12897;BME280;6516;35.028;32.372;2022-12-08T05:40:20;100592.88;;;13.77;79.82
12897;BME280;6516;35.028;32.372;2022-12-08T05:42:47;100595.31;;;13.85;79.73
12897;BME280;6516;35.028;32.372;2022-12-08T05:45:15;100602.13;;;13.95;79.44
12897;BME280;6516;35.028;32.372;2022-12-08T05:47:43;100606.34;;;14.03;79.61
12897;BME280;6516;35.028;32.372;2022-12-08T05:50:11;100604.31;;;14.13;79.75
12897;BME280;6516;35.028;32.372;2022-12-08T05:52:39;100609.38;;;14.25;79.60
12897;BME280;6516;35.028;32.372;2022-12-08T05:55:08;100605.56;;;14.35;80.03
12897;BME280;6516;35.028;32.372;2022-12-08T05:57:38;100615.03;;;14.43;79.36
12897;BME280;6516;35.028;32.372;2022-12-08T06:00:07;100608.53;;;14.55;79.58
12897;BME280;6516;35.028;32.372;2022-12-08T06:02:35;100609.94;;;14.69;79.26
12897;BME280;6516;35.028;32.372;2022-12-08T06:05:03;100612.16;;;14.84;79.03
12897;BME280;6516;35.028;32.372;2022-12-08T06:07:31;100618.78;;;15.00;78.72
12897;BME280;6516;35.028;32.372;2022-12-08T06:09:59;100610.22;;;15.21;78.23
12897;BME280;6516;35.028;32.372;2022-12-08T06:12:28;100619.25;;;15.45;78.00
12897;BME280;6516;35.028;32.372;2022-12-08T06:14:58;100615.00;;;15.68;76.43
12897;BME280;6516;35.028;32.372;2022-12-08T06:17:26;100614.31;;;15.89;75.60
12897;BME280;6516;35.028;32.372;2022-12-08T06:19:54;100610.09;;;16.10;74.95
12897;BME280;6516;35.028;32.372;2022-12-08T06:22:22;100623.38;;;16.36;74.53
12897;BME280;6516;35.028;32.372;2022-12-08T06:24:50;100622.47;;;16.63;74.47
12897;BME280;6516;35.028;32.372;2022-12-08T06:27:17;100626.84;;;16.88;72.72
12897;BME280;6516;35.028;32.372;2022-12-08T06:29:45;100630.44;;;17.12;72.38
12897;BME280;6516;35.028;32.372;2022-12-08T06:32:15;100626.09;;;17.32;69.44
12897;BME280;6516;35.028;32.372;2022-12-08T06:34:43;100631.66;;;17.51;67.68
12897;BME280;6516;35.028;32.372;2022-12-08T06:37:10;100632.63;;;17.71;66.93
12897;BME280;6516;35.028;32.372;2022-12-08T06:39:38;100636.91;;;17.97;66.60
12897;BME280;6516;35.028;32.372;2022-12-08T06:42:06;100646.63;;;18.19;66.00
12897;BME280;6516;35.028;32.372;2022-12-08T06:44:51;100642.34;;;18.38;65.03
12897;BME280;6516;35.028;32.372;2022-12-08T06:47:21;100650.41;;;18.57;64.29
12897;BME280;6516;35.028;32.372;2022-12-08T06:49:49;100644.84;;;18.83;63.54
12897;BME280;6516;35.028;32.372;2022-12-08T06:52:16;100649.09;;;19.07;63.56
12897;BME280;6516;35.028;32.372;2022-12-08T06:54:44;100651.63;;;19.30;61.55
12897;BME280;6516;35.028;32.372;2022-12-08T06:57:12;100650.78;;;19.48;58.60
12897;BME280;6516;35.028;32.372;2022-12-08T06:59:40;100655.00;;;19.72;59.34
12897;BME280;6516;35.028;32.372;2022-12-08T07:02:08;100646.66;;;19.97;59.12
12897;BME280;6516;35.028;32.372;2022-12-08T07:04:38;100650.50;;;20.28;56.34
12897;BME280;6516;35.028;32.372;2022-12-08T07:07:06;100650.69;;;20.42;55.13
12897;BME280;6516;35.028;32.372;2022-12-08T07:09:34;100657.78;;;20.60;54.11
12897;BME280;6516;35.028;32.372;2022-12-08T07:12:02;100661.41;;;20.76;54.37
12897;BME280;6516;35.028;32.372;2022-12-08T07:14:30;100661.66;;;21.06;53.58
12897;BME280;6516;35.028;32.372;2022-12-08T07:16:58;100668.41;;;21.30;52.83
12897;BME280;6516;35.028;32.372;2022-12-08T07:19:26;100664.38;;;21.38;53.51
12897;BME280;6516;35.028;32.372;2022-12-08T07:21:55;100661.22;;;21.63;53.98
12897;BME280;6516;35.028;32.372;2022-12-08T07:24:24;100671.75;;;21.50;52.85
12897;BME280;6516;35.028;32.372;2022-12-08T07:26:51;100672.09;;;21.77;52.07
12897;BME280;6516;35.028;32.372;2022-12-08T07:29:19;100670.53;;;21.73;52.66
12897;BME280;6516;35.028;32.372;2022-12-08T07:31:47;100669.84;;;21.85;52.34
12897;BME280;6516;35.028;32.372;2022-12-08T07:34:15;100670.03;;;21.82;52.66
12897;BME280;6516;35.028;32.372;2022-12-08T07:36:43;100672.09;;;21.92;52.65
12897;BME280;6516;35.028;32.372;2022-12-08T07:39:12;100663.19;;;22.07;50.74
12897;BME280;6516;35.028;32.372;2022-12-08T07:41:40;100669.00;;;22.31;49.38
12897;BME280;6516;35.028;32.372;2022-12-08T07:44:08;100665.69;;;22.41;48.86
12897;BME280;6516;35.028;32.372;2022-12-08T07:46:36;100672.63;;;22.30;50.18
12897;BME280;6516;35.028;32.372;2022-12-08T07:49:05;100665.19;;;22.50;48.62
12897;BME280;6516;35.028;32.372;2022-12-08T07:51:32;100667.59;;;22.55;47.73
12897;BME280;6516;35.028;32.372;2022-12-08T07:54:00;100666.66;;;22.56;48.40
12897;BME280;6516;35.028;32.372;2022-12-08T07:56:29;100672.44;;;22.48;47.77
12897;BME280;6516;35.028;32.372;2022-12-08T07:58:57;100667.84;;;22.66;47.49
12897;BME280;6516;35.028;32.372;2022-12-08T08:01:26;100666.25;;;22.77;47.33
12897;BME280;6516;35.028;32.372;2022-12-08T08:03:57;100667.47;;;23.01;46.11
12897;BME280;6516;35.028;32.372;2022-12-08T08:06:27;100664.59;;;23.04;46.25
12897;BME280;6516;35.028;32.372;2022-12-08T08:08:55;100663.53;;;23.36;46.06
12897;BME280;6516;35.028;32.372;2022-12-08T08:11:22;100666.59;;;23.44;44.51
12897;BME280;6516;35.028;32.372;2022-12-08T08:13:52;100658.72;;;23.55;44.37
12897;BME280;6516;35.028;32.372;2022-12-08T08:16:20;100654.50;;;23.37;44.32
12897;BME280;6516;35.028;32.372;2022-12-08T08:18:49;100656.69;;;23.45;44.41
12897;BME280;6516;35.028;32.372;2022-12-08T08:21:18;100663.53;;;23.50;42.84
12897;BME280;6516;35.028;32.372;2022-12-08T08:23:46;100648.28;;;23.65;43.41
12897;BME280;6516;35.028;32.372;2022-12-08T08:26:14;100659.22;;;23.62;43.62
12897;BME280;6516;35.028;32.372;2022-12-08T08:28:42;100658.44;;;23.74;43.11
12897;BME280;6516;35.028;32.372;2022-12-08T08:31:11;100664.00;;;23.71;43.26
12897;BME280;6516;35.028;32.372;2022-12-08T08:33:39;100659.97;;;23.78;43.57
12897;BME280;6516;35.028;32.372;2022-12-08T08:36:08;100652.25;;;23.86;42.57
12897;BME280;6516;35.028;32.372;2022-12-08T08:38:36;100645.19;;;23.71;42.97
12897;BME280;6516;35.028;32.372;2022-12-08T08:41:07;100644.13;;;23.73;43.49
12897;BME280;6516;35.028;32.372;2022-12-08T08:43:35;100641.53;;;23.58;43.50
12897;BME280;6516;35.028;32.372;2022-12-08T08:46:04;100644.13;;;23.59;42.75
12897;BME280;6516;35.028;32.372;2022-12-08T08:48:35;100643.16;;;23.60;43.38
12897;BME280;6516;35.028;32.372;2022-12-08T08:51:07;100647.88;;;23.71;43.27
12897;BME280;6516;35.028;32.372;2022-12-08T08:53:36;100640.75;;;23.84;43.46
12897;BME280;6516;35.028;32.372;2022-12-08T08:56:07;100637.59;;;23.91;43.41
12897;BME280;6516;35.028;32.372;2022-12-08T08:58:36;100633.81;;;24.08;42.65
12897;BME280;6516;35.028;32.372;2022-12-08T09:01:04;100624.47;;;24.13;41.83
12897;BME280;6516;35.028;32.372;2022-12-08T09:03:33;100629.44;;;24.19;41.76
12897;BME280;6516;35.028;32.372;2022-12-08T09:06:01;100623.44;;;24.28;41.93
12897;BME280;6516;35.028;32.372;2022-12-08T09:08:29;100623.69;;;24.11;42.48
12897;BME280;6516;35.028;32.372;2022-12-08T09:10:56;100615.88;;;23.80;42.06
12897;BME280;6516;35.028;32.372;2022-12-08T09:13:24;100623.56;;;23.72;42.65
12897;BME280;6516;35.028;32.372;2022-12-08T09:15:52;100617.25;;;23.59;42.58
12897;BME280;6516;35.028;32.372;2022-12-08T09:18:19;100624.25;;;23.20;43.49
12897;BME280;6516;35.028;32.372;2022-12-08T09:20:49;100619.91;;;23.17;43.75
12897;BME280;6516;35.028;32.372;2022-12-08T09:23:16;100616.53;;;23.14;44.61
12897;BME280;6516;35.028;32.372;2022-12-08T09:25:44;100618.72;;;23.07;44.32
12897;BME280;6516;35.028;32.372;2022-12-08T09:28:12;100616.19;;;22.76;45.41
12897;BME280;6516;35.028;32.372;2022-12-08T09:30:40;100621.88;;;22.56;45.57
12897;BME280;6516;35.028;32.372;2022-12-08T09:33:08;100616.19;;;22.31;46.15
12897;BME280;6516;35.028;32.372;2022-12-08T09:35:36;100616.22;;;22.16;46.40
12897;BME280;6516;35.028;32.372;2022-12-08T09:38:05;100616.22;;;22.00;46.94
12897;BME280;6516;35.028;32.372;2022-12-08T09:40:40;100609.22;;;21.82;47.55
12897;BME280;6516;35.028;32.372;2022-12-08T09:43:21;100611.00;;;21.66;48.17
12897;BME280;6516;35.028;32.372;2022-12-08T09:45:58;100605.03;;;21.61;48.97
12897;BME280;6516;35.028;32.372;2022-12-08T09:48:33;100601.50;;;21.61;49.29
12897;BME280;6516;35.028;32.372;2022-12-08T09:51:04;100602.03;;;21.67;49.45
12897;BME280;6516;35.028;32.372;2022-12-08T09:53:37;100600.31;;;21.97;48.73
12897;BME280;6516;35.028;32.372;2022-12-08T09:56:11;100597.06;;;22.37;47.33
12897;BME280;6516;35.028;32.372;2022-12-08T09:58:46;100596.69;;;22.73;46.87
12897;BME280;6516;35.028;32.372;2022-12-08T10:01:18;100601.44;;;22.83;45.61
12897;BME280;6516;35.028;32.372;2022-12-08T10:03:46;100586.88;;;22.87;45.43
12897;BME280;6516;35.028;32.372;2022-12-08T10:06:20;100581.56;;;22.86;45.34
12897;BME280;6516;35.028;32.372;2022-12-08T10:09:01;100584.66;;;22.94;46.24
12897;BME280;6516;35.028;32.372;2022-12-08T10:11:41;100588.50;;;23.18;45.94
12897;BME280;6516;35.028;32.372;2022-12-08T10:14:18;100585.00;;;23.31;46.08
12897;BME280;6516;35.028;32.372;2022-12-08T10:16:55;100579.81;;;23.42;45.70
12897;BME280;6516;35.028;32.372;2022-12-08T10:19:26;100580.59;;;23.44;44.82
12897;BME280;6516;35.028;32.372;2022-12-08T10:21:55;100575.50;;;23.40;45.30
12897;BME280;6516;35.028;32.372;2022-12-08T10:24:30;100575.22;;;23.44;45.62
12897;BME280;6516;35.028;32.372;2022-12-08T10:27:02;100575.22;;;23.44;45.61
12897;BME280;6516;35.028;32.372;2022-12-08T10:29:31;100574.63;;;23.25;45.77
12897;BME280;6516;35.028;32.372;2022-12-08T10:31:59;100577.50;;;23.08;47.13
12897;BME280;6516;35.028;32.372;2022-12-08T10:34:27;100578.81;;;22.87;47.71
12897;BME280;6516;35.028;32.372;2022-12-08T10:36:57;100580.94;;;22.53;48.28
12897;BME280;6516;35.028;32.372;2022-12-08T10:39:35;100576.03;;;22.45;49.17
12897;BME280;6516;35.028;32.372;2022-12-08T10:42:16;100577.25;;;22.24;51.26
12897;BME280;6516;35.028;32.372;2022-12-08T10:44:52;100586.88;;;22.13;52.33
12897;BME280;6516;35.028;32.372;2022-12-08T10:47:23;100584.13;;;22.14;52.55
12897;BME280;6516;35.028;32.372;2022-12-08T10:50:19;100584.06;;;22.00;52.32
12897;BME280;6516;35.028;32.372;2022-12-08T10:52:55;100577.97;;;22.12;52.02
12897;BME280;6516;35.028;32.372;2022-12-08T10:55:28;100574.94;;;22.18;52.31
12897;BME280;6516;35.028;32.372;2022-12-08T10:57:56;100583.31;;;22.12;52.26
12897;BME280;6516;35.028;32.372;2022-12-08T11:00:25;100579.38;;;22.04;52.13
12897;BME280;6516;35.028;32.372;2022-12-08T11:02:59;100577.22;;;21.95;52.53
12897;BME280;6516;35.028;32.372;2022-12-08T11:05:30;100583.25;;;21.83;53.13
12897;BME280;6516;35.028;32.372;2022-12-08T11:07:59;100573.50;;;21.82;52.97
12897;BME280;6516;35.028;32.372;2022-12-08T11:10:44;100567.91;;;21.71;53.52
12897;BME280;6516;35.028;32.372;2022-12-08T11:13:15;100567.19;;;21.67;53.77
12897;BME280;6516;35.028;32.372;2022-12-08T11:15:48;100569.75;;;21.69;54.19
12897;BME280;6516;35.028;32.372;2022-12-08T11:18:23;100565.91;;;21.74;54.31
12897;BME280;6516;35.028;32.372;2022-12-08T11:21:00;100568.84;;;21.85;55.18
12897;BME280;6516;35.028;32.372;2022-12-08T11:23:35;100572.53;;;21.83;55.33
12897;BME280;6516;35.028;32.372;2022-12-08T11:26:11;100562.63;;;21.85;55.23
12897;BME280;6516;35.028;32.372;2022-12-08T11:28:45;100555.75;;;21.95;54.49
12897;BME280;6516;35.028;32.372;2022-12-08T11:31:21;100554.13;;;21.92;54.57
12897;BME280;6516;35.028;32.372;2022-12-08T11:33:54;100552.56;;;22.04;54.87
12897;BME280;6516;35.028;32.372;2022-12-08T11:36:25;100550.22;;;22.13;53.94
12897;BME280;6516;35.028;32.372;2022-12-08T11:38:57;100558.16;;;22.15;53.95
12897;BME280;6516;35.028;32.372;2022-12-08T11:41:30;100556.34;;;22.15;53.91
12897;BME280;6516;35.028;32.372;2022-12-08T11:44:04;100555.75;;;22.10;53.67
12897;BME280;6516;35.028;32.372;2022-12-08T11:46:39;100555.91;;;22.07;53.15
12897;BME280;6516;35.028;32.372;2022-12-08T11:49:11;100550.81;;;22.03;53.68
12897;BME280;6516;35.028;32.372;2022-12-08T11:51:44;100566.78;;;21.90;54.00
12897;BME280;6516;35.028;32.372;2022-12-08T11:54:21;100560.09;;;21.97;53.84
12897;BME280;6516;35.028;32.372;2022-12-08T11:56:54;100562.22;;;22.06;54.33
12897;BME280;6516;35.028;32.372;2022-12-08T11:59:27;100554.72;;;21.97;54.26
12897;BME280;6516;35.028;32.372;2022-12-08T12:01:57;100563.28;;;21.88;54.61
12897;BME280;6516;35.028;32.372;2022-12-08T12:04:31;100562.09;;;21.78;54.81
12897;BME280;6516;35.028;32.372;2022-12-08T12:10:25;100564.03;;;21.28;55.46
12897;BME280;6516;35.028;32.372;2022-12-08T12:13:12;100560.78;;;21.06;56.20
12897;BME280;6516;35.028;32.372;2022-12-08T12:16:15;100563.63;;;20.86;57.13
12897;BME280;6516;35.028;32.372;2022-12-08T12:19:04;100560.81;;;20.72;57.93
12897;BME280;6516;35.028;32.372;2022-12-08T12:21:39;100560.50;;;20.61;58.36
12897;BME280;6516;35.028;32.372;2022-12-08T12:24:16;100565.84;;;20.44;58.53
12897;BME280;6516;35.028;32.372;2022-12-08T12:26:55;100563.91;;;20.31;58.46
12897;BME280;6516;35.028;32.372;2022-12-08T12:29:28;100569.91;;;20.17;59.18
12897;BME280;6516;35.028;32.372;2022-12-08T12:32:01;100569.50;;;20.08;59.64
12897;BME280;6516;35.028;32.372;2022-12-08T12:34:33;100561.88;;;20.00;60.74
12897;BME280;6516;35.028;32.372;2022-12-08T12:37:05;100569.47;;;19.91;60.56
12897;BME280;6516;35.028;32.372;2022-12-08T12:39:48;100570.78;;;19.82;61.46
12897;BME280;6516;35.028;32.372;2022-12-08T12:42:41;100575.63;;;19.74;62.33
12897;BME280;6516;35.028;32.372;2022-12-08T12:45:25;100578.59;;;19.68;62.81
12897;BME280;6516;35.028;32.372;2022-12-08T12:48:28;100584.09;;;19.65;63.02
12897;BME280;6516;35.028;32.372;2022-12-08T12:50:56;100581.56;;;19.62;62.77
12897;BME280;6516;35.028;32.372;2022-12-08T12:53:46;100577.22;;;19.59;62.89
12897;BME280;6516;35.028;32.372;2022-12-08T12:59:43;100583.75;;;19.54;64.07
12897;BME280;6516;35.028;32.372;2022-12-08T13:02:22;100584.47;;;19.58;64.58
12897;BME280;6516;35.028;32.372;2022-12-08T13:04:56;100585.16;;;19.61;64.79
12897;BME280;6516;35.028;32.372;2022-12-08T13:07:28;100590.38;;;19.64;65.02
12897;BME280;6516;35.028;32.372;2022-12-08T13:10:00;100584.97;;;19.66;65.22
12897;BME280;6516;35.028;32.372;2022-12-08T13:12:30;100575.13;;;19.66;64.93
12897;BME280;6516;35.028;32.372;2022-12-08T13:15:02;100577.22;;;19.59;65.24
12897;BME280;6516;35.028;32.372;2022-12-08T13:17:35;100583.81;;;19.52;65.59
12897;BME280;6516;35.028;32.372;2022-12-08T13:20:05;100575.41;;;19.41;65.91
12897;BME280;6516;35.028;32.372;2022-12-08T13:23:00;100585.81;;;19.29;65.94
12897;BME280;6516;35.028;32.372;2022-12-08T13:25:50;100588.09;;;19.18;66.01
12897;BME280;6516;35.028;32.372;2022-12-08T13:28:23;100592.19;;;19.06;66.87
12897;BME280;6516;35.028;32.372;2022-12-08T13:30:56;100581.81;;;18.99;67.80